createdAt,value
2018-06-21T00:00:55.584Z,17.20
2018-06-21T00:03:24.159Z,17.10
2018-06-21T00:05:52.672Z,17.00
2018-06-21T00:08:21.493Z,16.90
2018-06-21T00:10:50.296Z,16.80
2018-06-21T00:13:18.728Z,16.70
2018-06-21T00:15:47.234Z,16.70
2018-06-21T00:18:16.108Z,16.60
2018-06-21T00:20:44.715Z,16.50
2018-06-21T00:23:13.342Z,16.40
2018-06-21T00:25:42.398Z,16.30
2018-06-21T00:28:11.128Z,16.20
2018-06-21T00:30:39.712Z,16.20
2018-06-21T00:35:36.695Z,16.10
2018-06-21T00:38:05.330Z,16.10
2018-06-21T00:40:34.073Z,16.00
2018-06-21T00:43:02.967Z,16.00
2018-06-21T00:45:31.708Z,15.90
2018-06-21T00:48:00.493Z,15.90
2018-06-21T00:50:29.076Z,15.80
2018-06-21T00:52:57.890Z,15.80
2018-06-21T00:55:37.907Z,15.70
2018-06-21T00:58:06.480Z,15.70
2018-06-21T01:00:35.381Z,15.70
2018-06-21T01:03:04.120Z,15.70
2018-06-21T01:05:32.690Z,15.70
2018-06-21T01:08:01.558Z,15.70
2018-06-21T01:10:30.220Z,15.60
2018-06-21T01:12:58.789Z,15.60
2018-06-21T01:15:27.446Z,15.50
2018-06-21T01:20:24.466Z,15.40
2018-06-21T01:22:53.085Z,15.40
2018-06-21T01:25:21.757Z,15.40
2018-06-21T01:27:50.470Z,15.30
2018-06-21T01:30:19.068Z,15.30
2018-06-21T01:32:47.736Z,15.20
2018-06-21T01:35:16.480Z,15.20
2018-06-21T01:37:45.146Z,15.10
2018-06-21T01:40:13.868Z,15.00
2018-06-21T01:42:42.364Z,15.10
2018-06-21T01:45:11.162Z,15.10
2018-06-21T01:47:39.571Z,15.10
2018-06-21T01:50:08.116Z,15.10
2018-06-21T01:52:36.733Z,15.10
2018-06-21T01:57:33.460Z,15.10
2018-06-21T02:00:02.094Z,15.00
2018-06-21T02:08:16.436Z,14.90
2018-06-21T02:10:45.206Z,14.80
2018-06-21T02:13:14.144Z,14.80
2018-06-21T02:15:42.823Z,14.70
2018-06-21T02:18:11.714Z,14.70
2018-06-21T02:20:40.851Z,14.70
2018-06-21T02:23:09.948Z,14.60
2018-06-21T02:25:39.288Z,14.60
2018-06-21T02:28:07.844Z,14.60
2018-06-21T02:30:36.495Z,14.60
2018-06-21T02:33:05.390Z,14.60
2018-06-21T02:35:34.081Z,14.60
2018-06-21T02:38:03.610Z,14.50
2018-06-21T02:40:32.240Z,14.50
2018-06-21T02:43:02.353Z,14.50
2018-06-21T02:45:31.433Z,14.40
2018-06-21T02:48:00.444Z,14.40
2018-06-21T02:50:29.476Z,14.40
2018-06-21T02:52:58.403Z,14.40
2018-06-21T02:55:27.144Z,14.40
2018-06-21T02:57:55.935Z,14.30
2018-06-21T03:00:24.715Z,14.30
2018-06-21T03:02:53.439Z,14.30
2018-06-21T03:05:22.383Z,14.20
2018-06-21T03:07:51.166Z,14.20
2018-06-21T03:10:19.980Z,14.30
2018-06-21T03:12:47.732Z,14.30
2018-06-21T03:15:15.532Z,14.20
2018-06-21T03:17:45.355Z,14.20
2018-06-21T03:20:13.956Z,14.20
2018-06-21T03:22:42.752Z,14.20
2018-06-21T03:25:10.788Z,14.20
2018-06-21T03:27:38.816Z,14.20
2018-06-21T03:30:08.796Z,14.20
2018-06-21T03:32:37.570Z,14.20
2018-06-21T03:35:06.359Z,14.20
2018-06-21T03:40:03.834Z,14.30
2018-06-21T03:42:32.741Z,14.40
2018-06-21T03:47:28.979Z,14.70
2018-06-21T03:49:56.993Z,14.80
2018-06-21T03:52:26.011Z,14.90
2018-06-21T03:54:55.078Z,15.20
2018-06-21T03:57:23.714Z,15.40
2018-06-21T03:59:51.980Z,15.70
2018-06-21T04:02:19.842Z,15.90
2018-06-21T04:04:48.489Z,16.10
2018-06-21T04:07:17.467Z,16.30
2018-06-21T04:12:14.748Z,16.60
2018-06-21T04:14:44.299Z,16.80
2018-06-21T04:17:13.104Z,16.90
2018-06-21T04:19:41.765Z,17.10
2018-06-21T04:22:10.553Z,17.20
2018-06-21T04:24:40.314Z,17.30
2018-06-21T04:27:08.928Z,17.40
2018-06-21T04:29:37.550Z,17.50
2018-06-21T04:32:06.454Z,17.50
2018-06-21T04:34:35.118Z,17.60
2018-06-21T04:37:03.789Z,17.70
2018-06-21T04:39:32.521Z,17.70
2018-06-21T04:42:01.380Z,17.80
2018-06-21T04:44:30.045Z,17.90
2018-06-21T04:46:59.003Z,18.10
2018-06-21T04:49:28.591Z,18.20
2018-06-21T04:51:57.435Z,18.30
2018-06-21T04:54:26.286Z,18.50
2018-06-21T04:56:55.224Z,18.70
2018-06-21T04:59:24.027Z,18.80
2018-06-21T05:01:52.957Z,19.00
2018-06-21T05:04:21.834Z,19.20
2018-06-21T05:06:51.239Z,19.40
2018-06-21T05:09:21.661Z,19.50
2018-06-21T05:11:51.302Z,19.70
2018-06-21T05:14:21.060Z,19.80
2018-06-21T05:16:49.536Z,20.00
2018-06-21T05:19:18.180Z,20.10
2018-06-21T05:21:46.928Z,20.30
2018-06-21T05:24:15.923Z,20.40
2018-06-21T05:26:44.446Z,20.60
2018-06-21T05:29:14.368Z,20.70
2018-06-21T05:31:43.089Z,20.90
2018-06-21T05:34:11.861Z,21.00
2018-06-21T05:36:40.691Z,21.20
2018-06-21T05:39:10.576Z,21.30
2018-06-21T05:41:39.483Z,21.50
2018-06-21T05:44:08.290Z,21.70
2018-06-21T05:46:37.011Z,21.80
2018-06-21T05:49:05.658Z,22.00
2018-06-21T05:51:34.599Z,22.10
2018-06-21T05:54:03.168Z,22.20
2018-06-21T05:56:31.882Z,22.30
2018-06-21T05:59:00.571Z,22.50
2018-06-21T06:01:29.171Z,22.60
2018-06-21T06:06:26.027Z,22.90
2018-06-21T06:11:23.352Z,23.30
2018-06-21T06:13:51.980Z,23.40
2018-06-21T06:16:20.548Z,23.60
2018-06-21T06:18:49.145Z,23.70
2018-06-21T06:21:18.197Z,23.90
2018-06-21T06:23:47.018Z,24.00
2018-06-21T06:26:15.716Z,24.20
2018-06-21T06:28:44.317Z,24.40
2018-06-21T06:31:12.929Z,24.50
2018-06-21T06:33:41.641Z,24.70
2018-06-21T06:36:10.338Z,24.80
2018-06-21T06:38:38.895Z,24.90
2018-06-21T06:41:07.490Z,25.00
2018-06-21T06:43:36.289Z,25.10
2018-06-21T06:46:05.071Z,25.10
2018-06-21T06:48:33.969Z,25.00
2018-06-21T06:51:02.464Z,25.10
2018-06-21T06:53:31.895Z,25.30
2018-06-21T06:56:01.328Z,25.40
2018-06-21T07:00:58.947Z,25.10
2018-06-21T07:03:31.347Z,25.10
2018-06-21T07:05:59.945Z,25.20
2018-06-21T07:08:28.441Z,25.20
2018-06-21T07:10:57.142Z,25.00
2018-06-21T07:15:54.548Z,25.00
2018-06-21T07:18:23.438Z,25.00
2018-06-21T07:20:52.418Z,25.10
2018-06-21T07:23:21.282Z,25.10
2018-06-21T07:30:46.952Z,25.10
2018-06-21T07:35:44.256Z,24.90
2018-06-21T07:38:13.242Z,24.80
2018-06-21T07:50:35.293Z,26.00
2018-06-21T07:53:03.925Z,26.10
2018-06-21T07:55:32.527Z,26.20
2018-06-21T07:58:00.945Z,26.40
2018-06-21T08:00:29.894Z,26.60
2018-06-21T08:02:58.449Z,26.90
2018-06-21T08:07:55.447Z,27.20
2018-06-21T08:10:24.040Z,26.90
2018-06-21T08:12:53.021Z,26.70
2018-06-21T08:15:21.499Z,26.70
2018-06-21T08:17:50.106Z,26.60
2018-06-21T08:20:18.859Z,26.60
2018-06-21T08:22:47.352Z,26.70
2018-06-21T08:25:16.058Z,26.90
2018-06-21T08:27:44.784Z,27.10
2018-06-21T08:30:13.545Z,27.30
2018-06-21T08:32:42.989Z,27.40
2018-06-21T08:35:11.562Z,27.20
2018-06-21T08:37:40.625Z,26.80
2018-06-21T08:40:09.238Z,26.50
2018-06-21T08:42:38.202Z,26.60
2018-06-21T08:45:07.066Z,26.80
2018-06-21T08:47:35.700Z,27.00
2018-06-21T08:50:04.445Z,27.30
2018-06-21T08:52:32.982Z,27.30
2018-06-21T08:55:01.946Z,27.10
2018-06-21T08:57:30.642Z,27.10
2018-06-21T08:59:59.381Z,27.30
2018-06-21T09:04:56.656Z,27.50
2018-06-21T09:09:53.673Z,27.30
2018-06-21T09:12:22.286Z,27.20
2018-06-21T09:14:51.260Z,27.10
2018-06-21T09:17:19.842Z,27.10
2018-06-21T09:19:48.440Z,26.90
2018-06-21T09:22:17.008Z,27.00
2018-06-21T09:24:45.524Z,27.00
2018-06-21T09:27:14.130Z,27.00
2018-06-21T09:32:11.156Z,27.10
2018-06-21T09:34:39.705Z,27.40
2018-06-21T09:37:08.152Z,27.60
2018-06-21T09:42:15.617Z,27.40
2018-06-21T09:44:49.364Z,27.50
2018-06-21T09:47:23.147Z,27.60
2018-06-21T09:49:51.796Z,27.80
2018-06-21T09:52:20.420Z,27.80
2018-06-21T09:54:49.433Z,27.90
2018-06-21T09:57:18.107Z,28.10
2018-06-21T09:59:46.773Z,28.00
2018-06-21T10:02:15.513Z,27.90
2018-06-21T10:07:12.538Z,27.90
2018-06-21T10:12:09.589Z,28.40
2018-06-21T10:14:38.144Z,28.60
2018-06-21T10:17:08.863Z,28.80
2018-06-21T10:22:07.564Z,28.50
2018-06-21T10:24:36.209Z,28.30
2018-06-21T10:27:04.982Z,28.20
2018-06-21T10:29:34.257Z,28.20
2018-06-21T10:32:02.863Z,28.20
2018-06-21T10:34:31.517Z,28.20
2018-06-21T10:39:28.416Z,27.80
2018-06-21T10:41:57.275Z,27.80
2018-06-21T10:46:55.097Z,27.90
2018-06-21T10:49:23.626Z,27.90
2018-06-21T10:51:52.215Z,27.90
2018-06-21T10:54:20.704Z,27.90
2018-06-21T10:56:49.611Z,27.90
2018-06-21T11:09:13.038Z,28.00
2018-06-21T11:14:09.924Z,28.20
2018-06-21T11:16:38.574Z,28.20
2018-06-21T11:19:07.792Z,28.40
2018-06-21T11:21:36.725Z,28.40
2018-06-21T11:24:05.791Z,28.40
2018-06-21T11:26:34.313Z,28.40
2018-06-21T11:29:03.206Z,28.20
2018-06-21T11:31:32.102Z,28.00
2018-06-21T11:34:01.633Z,27.70
2018-06-21T11:36:30.447Z,27.50
2018-06-21T11:41:29.800Z,27.20
2018-06-21T11:43:58.451Z,27.00
2018-06-21T11:48:56.079Z,26.80
2018-06-21T11:51:24.801Z,26.80
2018-06-21T11:53:53.626Z,26.70
2018-06-21T11:58:50.628Z,26.90
2018-06-21T12:01:19.645Z,27.10
2018-06-21T12:03:48.477Z,27.20
2018-06-21T12:08:46.117Z,27.00
2018-06-21T12:11:16.168Z,26.80
2018-06-21T12:16:13.025Z,26.80
2018-06-21T12:18:41.670Z,26.90
2018-06-21T12:21:10.385Z,27.20
2018-06-21T12:23:39.159Z,27.30
2018-06-21T12:26:07.947Z,27.30
2018-06-21T12:28:36.552Z,27.30
2018-06-21T12:31:05.350Z,27.10
2018-06-21T12:33:34.299Z,26.90
2018-06-21T12:36:03.023Z,26.70
2018-06-21T12:38:32.522Z,26.40
2018-06-21T12:41:01.625Z,26.20
2018-06-21T12:43:31.393Z,25.90
2018-06-21T12:46:00.366Z,25.90
2018-06-21T12:48:29.410Z,26.10
2018-06-21T12:50:58.428Z,26.00
2018-06-21T12:53:27.592Z,25.20
2018-06-21T12:55:56.410Z,24.40
2018-06-21T12:58:25.076Z,23.70
2018-06-21T13:00:53.860Z,22.90
2018-06-21T13:03:23.071Z,22.60
2018-06-21T13:05:51.778Z,22.60
2018-06-21T13:08:32.225Z,22.50
2018-06-21T13:11:12.753Z,22.50
2018-06-21T13:13:41.612Z,22.30
2018-06-21T13:16:10.327Z,21.90
2018-06-21T13:18:39.164Z,21.50
2018-06-21T13:21:07.674Z,21.20
2018-06-21T13:23:36.404Z,20.90
2018-06-21T13:26:05.174Z,20.70
2018-06-21T13:28:33.994Z,20.60
2018-06-21T13:31:02.880Z,20.40
2018-06-21T13:33:31.861Z,20.20
2018-06-21T13:36:00.859Z,20.00
2018-06-21T13:38:29.793Z,19.90
2018-06-21T13:41:00.268Z,19.80
2018-06-21T13:43:29.115Z,19.80
2018-06-21T13:45:57.879Z,19.70
2018-06-21T13:48:26.934Z,19.60
2018-06-21T13:50:55.902Z,19.40
2018-06-21T13:53:24.500Z,19.40
2018-06-21T13:55:53.808Z,19.40
2018-06-21T13:58:23.778Z,19.30
2018-06-21T14:00:52.607Z,19.20
2018-06-21T14:03:21.619Z,19.00
2018-06-21T14:08:20.922Z,18.80
2018-06-21T14:10:49.587Z,18.60
2018-06-21T14:13:18.449Z,18.40
2018-06-21T14:15:47.275Z,18.30
2018-06-21T14:18:15.868Z,18.20
2018-06-21T14:20:44.603Z,18.00
2018-06-21T14:23:13.259Z,17.90
2018-06-21T14:25:42.175Z,17.70
2018-06-21T14:28:11.163Z,17.50
2018-06-21T14:30:39.860Z,17.40
2018-06-21T14:33:09.266Z,17.30
2018-06-21T14:35:39.516Z,17.20
2018-06-21T14:38:08.150Z,17.20
2018-06-21T14:40:36.854Z,17.10
2018-06-21T14:43:06.155Z,17.10
2018-06-21T14:45:34.880Z,17.00
2018-06-21T14:48:03.907Z,16.90
2018-06-21T14:50:32.715Z,16.90
2018-06-21T14:53:01.527Z,16.90
2018-06-21T14:55:30.396Z,16.90
2018-06-21T14:57:59.317Z,16.80
2018-06-21T15:00:28.145Z,16.80
2018-06-21T15:02:56.894Z,16.80
2018-06-21T15:05:25.819Z,16.70
2018-06-21T15:07:55.158Z,16.70
2018-06-21T15:10:23.759Z,16.60
2018-06-21T15:12:52.540Z,16.50
2018-06-21T15:17:49.996Z,16.30
2018-06-21T15:20:19.829Z,16.30
2018-06-21T15:22:49.502Z,16.30
2018-06-21T15:25:18.986Z,16.20
2018-06-21T15:27:47.950Z,16.20
2018-06-21T15:30:16.731Z,16.20
2018-06-21T15:32:46.424Z,16.20
2018-06-21T15:35:15.341Z,16.30
2018-06-21T15:37:44.229Z,16.40
2018-06-21T15:40:13.156Z,16.60
2018-06-21T15:42:42.727Z,16.70
2018-06-21T15:45:13.156Z,16.80
2018-06-21T15:47:42.100Z,16.80
2018-06-21T15:50:12.538Z,16.90
2018-06-21T15:52:41.514Z,16.80
2018-06-21T15:55:10.390Z,16.80
2018-06-21T15:57:39.136Z,16.80
2018-06-21T16:00:11.455Z,16.90
2018-06-21T16:02:40.685Z,16.90
2018-06-21T16:05:11.684Z,16.90
2018-06-21T16:07:40.533Z,16.90
2018-06-21T16:10:10.790Z,16.90
2018-06-21T16:15:09.804Z,16.70
2018-06-21T16:17:41.768Z,16.60
2018-06-21T16:22:41.605Z,16.40
2018-06-21T16:27:41.411Z,16.20
2018-06-21T16:30:10.387Z,16.10
2018-06-21T16:32:39.398Z,16.10
2018-06-21T16:35:09.210Z,16.10
2018-06-21T16:37:38.054Z,16.10
2018-06-21T16:40:07.285Z,16.00
2018-06-21T16:42:36.451Z,16.00
2018-06-21T16:45:08.653Z,15.90
2018-06-21T16:47:39.652Z,15.90
2018-06-21T16:50:09.917Z,15.90
2018-06-21T16:52:38.814Z,16.00
2018-06-21T16:55:08.871Z,16.10
2018-06-21T17:00:09.081Z,16.00
2018-06-21T17:02:39.539Z,15.90
2018-06-21T17:10:06.316Z,15.50
2018-06-21T17:12:35.073Z,15.40
2018-06-21T17:15:04.099Z,15.40
2018-06-21T17:17:32.979Z,15.30
2018-06-21T17:20:01.809Z,15.20
2018-06-21T17:22:30.670Z,15.20
2018-06-21T17:25:00.283Z,15.20
2018-06-21T17:27:29.517Z,15.20
2018-06-21T17:30:00.288Z,15.10
2018-06-21T17:32:28.976Z,15.10
2018-06-21T17:34:57.726Z,15.10
2018-06-21T17:37:27.469Z,15.20
2018-06-21T17:39:56.374Z,15.10
2018-06-21T17:42:27.048Z,15.00
2018-06-21T17:44:57.217Z,15.00
2018-06-21T17:47:27.068Z,15.00
2018-06-21T17:49:56.737Z,15.00
2018-06-21T17:52:27.200Z,15.00
2018-06-21T17:54:57.873Z,15.10
2018-06-21T17:57:27.213Z,15.10
2018-06-21T17:59:56.530Z,15.10
2018-06-21T18:02:26.391Z,15.00
2018-06-21T18:04:55.541Z,15.10
2018-06-21T18:07:25.978Z,15.10
2018-06-21T18:09:56.723Z,15.20
2018-06-21T18:12:26.130Z,15.20
2018-06-21T18:15:15.253Z,15.30
2018-06-21T18:17:47.433Z,15.30
2018-06-21T18:20:17.365Z,15.30
2018-06-21T18:22:46.866Z,15.30
2018-06-21T18:25:19.943Z,15.20
2018-06-21T18:27:51.631Z,15.10
2018-06-21T18:32:49.416Z,15.00
2018-06-21T18:35:18.772Z,14.90
2018-06-21T18:37:51.615Z,14.90
2018-06-21T18:40:21.572Z,14.80
2018-06-21T18:42:50.818Z,14.80
2018-06-21T18:45:20.507Z,14.70
2018-06-21T18:47:49.423Z,14.60
2018-06-21T18:50:18.600Z,14.60
2018-06-21T18:52:47.520Z,14.50
2018-06-21T18:55:17.886Z,14.50
2018-06-21T18:57:46.831Z,14.40
2018-06-21T19:00:15.808Z,14.30
2018-06-21T19:02:44.692Z,14.20
2018-06-21T19:05:14.097Z,14.10
2018-06-21T19:07:43.286Z,14.00
2018-06-21T19:10:18.022Z,14.00
2018-06-21T19:12:46.702Z,13.90
2018-06-21T19:15:16.996Z,13.80
2018-06-21T19:17:45.871Z,13.80
2018-06-21T19:20:14.636Z,13.70
2018-06-21T19:22:43.568Z,13.60
2018-06-21T19:25:21.955Z,13.60
2018-06-21T19:27:52.269Z,13.50
2018-06-21T19:30:21.108Z,13.40
2018-06-21T19:32:50.945Z,13.40
2018-06-21T19:35:20.923Z,13.30
2018-06-21T19:37:50.394Z,13.20
2018-06-21T19:40:34.985Z,13.20
2018-06-21T19:43:04.998Z,13.10
2018-06-21T19:45:34.512Z,13.00
2018-06-21T19:48:03.386Z,13.00
2018-06-21T19:50:32.754Z,13.00
2018-06-21T19:53:02.377Z,12.90
2018-06-21T19:55:32.389Z,12.80
2018-06-21T19:58:01.187Z,12.80
2018-06-21T20:00:29.984Z,12.80
2018-06-21T20:03:00.444Z,12.70
2018-06-21T20:05:30.250Z,12.60
2018-06-21T20:07:59.236Z,12.60
2018-06-21T20:10:28.147Z,12.50
2018-06-21T20:12:56.935Z,12.40
2018-06-21T20:15:25.850Z,12.40
2018-06-21T20:17:54.833Z,12.30
2018-06-21T20:22:58.024Z,12.20
2018-06-21T20:25:27.302Z,12.10
2018-06-21T20:27:56.374Z,12.00
2018-06-21T20:30:26.183Z,11.90
2018-06-21T20:32:54.927Z,11.90
2018-06-21T20:35:23.737Z,11.70
2018-06-21T20:37:52.773Z,11.60
2018-06-21T20:40:21.606Z,11.60
2018-06-21T20:45:19.562Z,11.30
2018-06-21T20:47:48.274Z,11.30
2018-06-21T20:50:18.629Z,11.20
2018-06-21T20:52:48.338Z,11.10
2018-06-21T20:57:45.551Z,11.10
2018-06-21T21:00:14.652Z,11.00
2018-06-21T21:02:43.571Z,11.00
2018-06-21T21:05:12.631Z,10.90
2018-06-21T21:07:42.191Z,10.90
2018-06-21T21:10:14.384Z,10.90
2018-06-21T21:12:43.290Z,10.90
2018-06-21T21:15:13.089Z,10.80
2018-06-21T21:17:42.375Z,10.80
2018-06-21T21:20:11.683Z,10.70
2018-06-21T21:25:09.733Z,10.60
2018-06-21T21:27:38.383Z,10.60
2018-06-21T21:30:08.657Z,10.60
2018-06-21T21:32:37.732Z,10.50
2018-06-21T21:35:06.556Z,10.50
2018-06-21T21:37:35.478Z,10.40
2018-06-21T21:40:05.489Z,10.30
2018-06-21T21:45:03.985Z,10.00
2018-06-21T21:50:00.902Z,9.90
2018-06-21T21:52:29.772Z,10.00
2018-06-21T21:54:58.540Z,10.00
2018-06-21T21:57:27.443Z,10.00
2018-06-21T21:59:56.329Z,9.90
2018-06-21T22:02:24.893Z,9.90
2018-06-21T22:04:53.851Z,9.90
2018-06-21T22:07:22.747Z,9.90
